Terminal Aerodrome Forecast
Issued by NWS

Home | Current Version | Previous Version | Text Only | Print | Product List | Glossary On
Versions: 1 2 3 4 5 6 7 8 9 10 11 12 13 14 15 16 17 18 19 20 21 22 23 24
000
FTUS42 KRAH 250722 AAA
TAFINT
TAF AMD
KINT 250722Z 2507/2606 04005KT P6SM OVC010
     FM250900 04007KT P6SM OVC007
     FM251200 06005KT 5SM BR OVC005
     FM251700 08005KT 5SM BR OVC010
     FM251800 08005KT P6SM OVC020=

USA.gov is the U.S. government's official web portal to all federal, state and local government web resources and services.